Time;durP1;ratioP1;P1;durP2;ratioP2;P2;SDS_P1;SDS_P2;PMS_P1;PMS_P2;Temp;Humidity;BMP_temperature;BMP_pressure;BME280_temperature;BME280_humidity;BME280_pressure;Samples;Min_cycle;Max_cycle;Signal;HPM_P1;HPM_P2
2021/05/31 00:00:39;;;;;;;7.47;5.40;;;;;;;;;;4999553;28;20753;-60
2021/05/31 00:03:06;;;;;;;5.20;4.67;;;;;;;;;;4987591;28;20211;-60
2021/05/31 00:05:35;;;;;;;5.20;4.70;;;;;;;;;;5002505;28;20184;-60
2021/05/31 00:08:03;;;;;;;6.53;4.47;;;;;;;;;;5002338;28;20193;-60
2021/05/31 00:10:33;;;;;;;5.50;4.40;;;;;;;;;;4985237;28;20870;-59
2021/05/31 00:12:59;;;;;;;5.47;4.00;;;;;;;;;;5008436;28;20207;-58
2021/05/31 00:15:30;;;;;;;5.00;3.60;;;;;;;;;;4983581;28;20263;-59
2021/05/31 00:17:55;;;;;;;4.03;3.43;;;;;;;;;;5001307;28;20196;-59
2021/05/31 00:20:24;;;;;;;4.63;3.50;;;;;;;;;;5009405;28;20187;-59
2021/05/31 00:22:52;;;;;;;5.77;3.83;;;;;;;;;;4997285;28;20215;-61
2021/05/31 00:25:20;;;;;;;5.43;3.67;;;;;;;;;;4998860;28;20290;-58
2021/05/31 00:27:45;;;;;;;4.10;3.40;;;;;;;;;;5000891;28;20191;-60
2021/05/31 00:30:13;;;;;;;8.10;3.17;;;;;;;;;;5000311;28;20215;-60
2021/05/31 00:32:40;;;;;;;5.00;3.80;;;;;;;;;;4999721;28;20242;-59
2021/05/31 00:35:08;;;;;;;4.93;3.77;;;;;;;;;;4995870;28;21048;-60
2021/05/31 00:37:38;;;;;;;6.67;3.80;;;;;;;;;;5001036;28;20727;-59
2021/05/31 00:40:07;;;;;;;3.37;3.07;;;;;;;;;;4999696;28;20215;-60
2021/05/31 00:42:35;;;;;;;6.23;3.60;;;;;;;;;;4999327;28;20218;-60
2021/05/31 00:45:01;;;;;;;3.67;3.33;;;;;;;;;;5007039;28;20266;-60
2021/05/31 00:47:27;;;;;;;4.90;3.93;;;;;;;;;;5008759;28;20270;-60
2021/05/31 00:49:54;;;;;;;5.00;3.70;;;;;;;;;;5009735;28;20210;-60
2021/05/31 00:52:21;;;;;;;5.23;3.93;;;;;;;;;;5005906;28;20763;-59
2021/05/31 00:54:50;;;;;;;5.17;3.93;;;;;;;;;;5004184;28;20279;-59
2021/05/31 00:57:20;;;;;;;4.30;3.53;;;;;;;;;;5000753;28;20975;-59
2021/05/31 00:59:50;;;;;;;15.17;4.80;;;;;;;;;;5002732;28;20245;-59
2021/05/31 01:02:18;;;;;;;6.63;4.37;;;;;;;;;;5002931;28;20574;-59
2021/05/31 01:04:48;;;;;;;5.13;4.30;;;;;;;;;;5005048;28;20276;-60
2021/05/31 01:07:58;;;;;;;5.53;4.40;;;;;;;;;;5011119;28;20554;-60
2021/05/31 01:11:06;;;;;;;7.17;4.50;;;;;;;;;;4888238;29;20598;-60
2021/05/31 01:13:52;;;;;;;7.53;3.63;;;;;;;;;;4851946;29;20232;-60
2021/05/31 01:16:24;;;;;;;6.43;3.57;;;;;;;;;;4946358;28;20256;-59
2021/05/31 01:18:54;;;;;;;5.13;3.60;;;;;;;;;;4984299;28;20213;-60
2021/05/31 01:21:54;;;;;;;4.00;3.60;;;;;;;;;;5012796;28;20580;-60
2021/05/31 01:25:04;;;;;;;5.67;3.70;;;;;;;;;;4985403;28;20719;-59
2021/05/31 01:27:43;;;;;;;7.00;3.70;;;;;;;;;;4967835;28;20257;-59
2021/05/31 01:30:16;;;;;;;5.07;4.10;;;;;;;;;;5006370;28;20257;-59
2021/05/31 01:32:52;;;;;;;4.43;4.03;;;;;;;;;;5002380;28;20706;-60
2021/05/31 01:35:23;;;;;;;4.50;4.10;;;;;;;;;;5003527;28;20294;-59
2021/05/31 01:37:53;;;;;;;4.67;4.03;;;;;;;;;;5010149;28;20238;-60
2021/05/31 01:40:22;;;;;;;7.23;3.80;;;;;;;;;;5002617;28;20200;-60
2021/05/31 01:42:51;;;;;;;6.03;4.50;;;;;;;;;;4987631;28;20305;-61
2021/05/31 01:45:21;;;;;;;4.80;3.80;;;;;;;;;;4987634;28;20202;-59
2021/05/31 01:47:47;;;;;;;4.73;4.23;;;;;;;;;;5001145;28;20230;-60
2021/05/31 01:50:16;;;;;;;4.60;4.20;;;;;;;;;;5006017;28;20230;-60
2021/05/31 01:52:45;;;;;;;4.83;3.67;;;;;;;;;;4985509;28;20225;-60
2021/05/31 01:55:16;;;;;;;4.33;3.83;;;;;;;;;;5006203;28;20175;-59
2021/05/31 01:57:46;;;;;;;4.60;3.73;;;;;;;;;;5003159;28;20218;-59
2021/05/31 02:00:18;;;;;;;4.67;4.27;;;;;;;;;;4996445;28;20179;-61
2021/05/31 02:02:45;;;;;;;4.73;4.00;;;;;;;;;;5001119;28;20709;-60
2021/05/31 02:05:14;;;;;;;4.67;4.00;;;;;;;;;;4998668;28;21032;-60
2021/05/31 02:07:41;;;;;;;4.80;3.67;;;;;;;;;;5002436;28;20259;-60
2021/05/31 02:10:14;;;;;;;5.63;3.83;;;;;;;;;;5001061;28;20276;-60
2021/05/31 02:12:56;;;;;;;5.33;4.13;;;;;;;;;;5005030;28;20979;-60
2021/05/31 02:15:36;;;;;;;4.17;3.77;;;;;;;;;;5006231;28;20198;-61
2021/05/31 02:18:05;;;;;;;5.07;4.07;;;;;;;;;;5004293;28;20195;-59
2021/05/31 02:20:33;;;;;;;4.20;3.67;;;;;;;;;;5006458;28;20634;-59
2021/05/31 02:23:04;;;;;;;4.40;3.87;;;;;;;;;;4999925;28;20266;-59
2021/05/31 02:25:34;;;;;;;4.40;3.90;;;;;;;;;;5003625;28;20266;-59
2021/05/31 02:28:05;;;;;;;5.37;4.37;;;;;;;;;;4982757;28;20241;-59
2021/05/31 02:30:32;;;;;;;5.07;4.53;;;;;;;;;;4984478;28;20679;-59
2021/05/31 02:33:00;;;;;;;4.50;3.83;;;;;;;;;;5001067;28;20491;-59
2021/05/31 02:35:31;;;;;;;4.93;3.83;;;;;;;;;;4997459;28;20280;-60
2021/05/31 02:38:01;;;;;;;4.63;4.07;;;;;;;;;;4983438;28;20329;-60
2021/05/31 02:40:30;;;;;;;6.77;3.90;;;;;;;;;;4982012;28;20627;-60
2021/05/31 02:43:01;;;;;;;6.63;4.33;;;;;;;;;;5002501;28;20843;-60
2021/05/31 02:45:30;;;;;;;5.90;4.37;;;;;;;;;;5005215;28;20268;-59
2021/05/31 02:47:58;;;;;;;8.33;4.23;;;;;;;;;;4998372;28;20261;-59
2021/05/31 02:50:27;;;;;;;3.80;3.50;;;;;;;;;;5000681;28;20211;-59
2021/05/31 02:52:54;;;;;;;5.97;4.20;;;;;;;;;;4982366;28;20711;-59
2021/05/31 02:55:23;;;;;;;6.40;4.70;;;;;;;;;;4996133;28;20238;-60
2021/05/31 02:57:52;;;;;;;7.30;4.73;;;;;;;;;;4983870;28;20202;-60
2021/05/31 03:00:20;;;;;;;4.63;4.20;;;;;;;;;;5006206;28;20600;-60
2021/05/31 03:02:53;;;;;;;9.83;4.77;;;;;;;;;;5002060;28;20626;-60
2021/05/31 03:05:23;;;;;;;5.27;4.47;;;;;;;;;;4992744;28;20238;-60
2021/05/31 03:07:51;;;;;;;4.90;4.20;;;;;;;;;;5008215;28;20293;-58
2021/05/31 03:10:17;;;;;;;5.93;4.20;;;;;;;;;;5005652;28;20749;-59
2021/05/31 03:12:42;;;;;;;5.63;4.23;;;;;;;;;;5004338;28;20211;-60
2021/05/31 03:15:12;;;;;;;4.33;3.93;;;;;;;;;;5001302;28;20199;-59
2021/05/31 03:17:40;;;;;;;6.13;3.70;;;;;;;;;;5004221;28;20242;-58
2021/05/31 03:20:06;;;;;;;4.30;3.90;;;;;;;;;;4983278;28;20226;-59
2021/05/31 03:22:32;;;;;;;4.27;3.87;;;;;;;;;;4988317;28;21119;-60
2021/05/31 03:24:57;;;;;;;5.73;4.27;;;;;;;;;;4999855;28;20183;-59
2021/05/31 03:27:25;;;;;;;8.77;4.30;;;;;;;;;;5003245;28;20199;-59
2021/05/31 03:29:53;;;;;;;9.43;5.00;;;;;;;;;;4996821;28;20574;-59
2021/05/31 03:32:22;;;;;;;5.30;4.33;;;;;;;;;;5005834;28;20219;-59
2021/05/31 03:34:53;;;;;;;6.40;4.90;;;;;;;;;;4986053;28;20740;-59
2021/05/31 03:37:18;;;;;;;6.00;5.10;;;;;;;;;;5009998;28;20214;-59
2021/05/31 03:39:45;;;;;;;4.83;4.33;;;;;;;;;;5010388;28;20222;-58
2021/05/31 03:42:13;;;;;;;5.90;3.87;;;;;;;;;;5003880;28;20214;-59
2021/05/31 03:44:38;;;;;;;8.03;3.93;;;;;;;;;;4990548;28;20187;-59
2021/05/31 03:47:03;;;;;;;5.17;4.33;;;;;;;;;;5003071;28;20597;-59
2021/05/31 03:49:29;;;;;;;5.70;4.13;;;;;;;;;;5004804;28;20324;-59
2021/05/31 03:51:59;;;;;;;4.73;4.30;;;;;;;;;;5002438;28;20199;-59
2021/05/31 03:54:26;;;;;;;5.73;4.13;;;;;;;;;;5003599;28;20530;-59
2021/05/31 03:56:55;;;;;;;9.50;4.53;;;;;;;;;;5004594;28;20278;-58
2021/05/31 03:59:23;;;;;;;5.87;4.03;;;;;;;;;;4988767;28;20223;-60
2021/05/31 04:01:51;;;;;;;4.40;3.20;;;;;;;;;;5001160;28;20188;-58
2021/05/31 04:04:19;;;;;;;5.63;3.67;;;;;;;;;;4996130;28;20718;-58
2021/05/31 04:12:07;;;;;;;5.17;4.67;;;;;;;;;;5005190;28;20207;-60
2021/05/31 04:14:39;;;;;;;6.17;4.53;;;;;;;;;;5004324;28;20187;-60
2021/05/31 04:17:09;;;;;;;8.93;4.43;;;;;;;;;;5013154;28;20243;-59
2021/05/31 04:19:39;;;;;;;4.73;4.07;;;;;;;;;;5007118;28;20665;-59
2021/05/31 04:22:06;;;;;;;6.73;3.90;;;;;;;;;;5004488;28;20207;-59
2021/05/31 04:24:36;;;;;;;4.50;4.07;;;;;;;;;;5008953;28;20183;-59
2021/05/31 04:27:04;;;;;;;5.67;4.43;;;;;;;;;;5009247;28;20699;-60
2021/05/31 04:29:32;;;;;;;6.70;4.20;;;;;;;;;;5008977;28;20349;-59
2021/05/31 04:31:57;;;;;;;5.10;4.07;;;;;;;;;;4983954;28;20230;-58
2021/05/31 04:34:27;;;;;;;5.37;4.40;;;;;;;;;;4990403;28;20619;-59
2021/05/31 04:36:57;;;;;;;5.50;4.27;;;;;;;;;;5002028;28;20226;-59
2021/05/31 04:39:24;;;;;;;7.83;4.20;;;;;;;;;;5014409;28;20202;-59
2021/05/31 04:41:50;;;;;;;7.27;5.00;;;;;;;;;;4997082;28;20270;-59
2021/05/31 04:44:17;;;;;;;5.53;4.30;;;;;;;;;;4998952;28;20312;-59
2021/05/31 04:46:42;;;;;;;5.13;4.63;;;;;;;;;;4989256;28;20254;-60
2021/05/31 04:49:10;;;;;;;4.97;4.47;;;;;;;;;;5001727;28;20279;-59
2021/05/31 04:51:37;;;;;;;5.73;4.30;;;;;;;;;;5007229;28;20219;-59
2021/05/31 04:54:08;;;;;;;6.10;4.63;;;;;;;;;;5005494;28;20300;-59
2021/05/31 04:56:36;;;;;;;6.00;4.70;;;;;;;;;;5005682;28;20282;-59
2021/05/31 04:59:01;;;;;;;7.13;4.93;;;;;;;;;;5008235;28;20647;-59
2021/05/31 05:01:29;;;;;;;5.57;4.60;;;;;;;;;;5004729;28;20198;-59
2021/05/31 05:03:56;;;;;;;6.80;4.97;;;;;;;;;;5001557;28;20259;-59
2021/05/31 05:06:21;;;;;;;6.43;4.60;;;;;;;;;;5002224;28;20206;-60
2021/05/31 05:08:50;;;;;;;12.20;5.53;;;;;;;;;;4991542;28;20291;-60
2021/05/31 05:11:20;;;;;;;6.77;4.50;;;;;;;;;;5004793;28;20270;-60
2021/05/31 05:13:46;;;;;;;7.70;4.93;;;;;;;;;;4991658;28;20584;-60
2021/05/31 05:16:11;;;;;;;7.57;5.00;;;;;;;;;;5001896;28;20175;-60
2021/05/31 05:18:46;;;;;;;5.03;4.53;;;;;;;;;;4985889;28;20187;-59
2021/05/31 05:21:12;;;;;;;7.67;5.10;;;;;;;;;;5001836;28;20245;-59
2021/05/31 05:23:37;;;;;;;6.90;5.13;;;;;;;;;;5006226;28;20690;-59
2021/05/31 05:26:04;;;;;;;7.50;5.03;;;;;;;;;;4985301;28;20710;-60
2021/05/31 05:28:32;;;;;;;7.50;5.33;;;;;;;;;;5004227;28;20210;-59
2021/05/31 05:30:57;;;;;;;5.20;4.30;;;;;;;;;;5002881;28;20193;-60
2021/05/31 05:33:44;;;;;;;4.80;3.93;;;;;;;;;;5004898;28;20281;-59
2021/05/31 05:36:22;;;;;;;9.77;4.77;;;;;;;;;;5001997;28;20224;-60
2021/05/31 05:39:13;;;;;;;11.53;4.70;;;;;;;;;;5010034;23;20179;-83
2021/05/31 05:44:55;;;;;;;5.87;3.87;;;;;;;;;;4985352;28;20207;-81
2021/05/31 05:49:46;;;;;;;6.70;4.30;;;;;;;;;;4985345;28;20214;-81
2021/05/31 05:52:12;;;;;;;12.60;4.53;;;;;;;;;;4979815;28;20220;-81
2021/05/31 05:54:37;;;;;;;5.20;4.00;;;;;;;;;;4988083;28;20603;-82
2021/05/31 05:57:03;;;;;;;5.20;4.10;;;;;;;;;;4983642;28;20635;-82
2021/05/31 05:59:29;;;;;;;6.40;4.03;;;;;;;;;;4985253;28;20184;-82
2021/05/31 06:01:54;;;;;;;5.27;4.20;;;;;;;;;;4984925;28;20215;-82
2021/05/31 06:04:19;;;;;;;6.53;3.87;;;;;;;;;;4982134;28;20278;-82
2021/05/31 06:06:46;;;;;;;5.33;3.87;;;;;;;;;;4983947;28;20668;-82
2021/05/31 06:09:16;;;;;;;5.47;4.23;;;;;;;;;;4987081;28;20227;-82
2021/05/31 06:11:43;;;;;;;5.90;3.80;;;;;;;;;;4982402;28;20212;-82
2021/05/31 06:14:13;;;;;;;5.57;4.17;;;;;;;;;;4984938;28;20203;-82
2021/05/31 06:16:38;;;;;;;6.00;4.10;;;;;;;;;;4983005;28;20221;-82
2021/05/31 06:19:04;;;;;;;6.27;3.73;;;;;;;;;;4980307;28;20223;-82
2021/05/31 06:21:30;;;;;;;5.10;4.03;;;;;;;;;;4983304;28;20242;-82
2021/05/31 06:23:55;;;;;;;4.20;3.60;;;;;;;;;;4979154;28;20204;-82
2021/05/31 06:26:21;;;;;;;5.30;3.80;;;;;;;;;;4986040;28;20668;-82
2021/05/31 06:28:46;;;;;;;6.60;4.10;;;;;;;;;;4984578;28;20337;-81
2021/05/31 06:31:12;;;;;;;7.13;3.93;;;;;;;;;;4984493;28;20591;-82
2021/05/31 06:33:37;;;;;;;5.97;3.80;;;;;;;;;;4987675;28;20211;-82
2021/05/31 06:36:06;;;;;;;6.43;4.10;;;;;;;;;;4984745;28;20881;-84
2021/05/31 06:38:34;;;;;;;4.23;3.30;;;;;;;;;;4974348;28;20192;-81
2021/05/31 06:41:02;;;;;;;5.50;3.70;;;;;;;;;;4981284;28;20266;-77
2021/05/31 06:43:28;;;;;;;5.47;3.50;;;;;;;;;;4977172;28;20220;-75
2021/05/31 06:45:57;;;;;;;6.33;3.17;;;;;;;;;;4983491;28;20219;-76
2021/05/31 06:48:23;;;;;;;5.10;3.33;;;;;;;;;;4980520;28;20200;-76
2021/05/31 06:50:50;;;;;;;7.97;3.70;;;;;;;;;;4984429;28;20234;-76
2021/05/31 06:53:17;;;;;;;4.10;3.00;;;;;;;;;;4982498;28;20199;-75
2021/05/31 06:55:43;;;;;;;5.57;3.30;;;;;;;;;;4988211;28;20188;-75
2021/05/31 06:58:09;;;;;;;5.80;3.60;;;;;;;;;;4985339;28;20195;-75
2021/05/31 07:00:35;;;;;;;5.33;3.27;;;;;;;;;;4984359;28;20207;-75
2021/05/31 07:03:00;;;;;;;4.80;3.27;;;;;;;;;;4985272;28;20261;-76
2021/05/31 07:05:25;;;;;;;5.43;3.57;;;;;;;;;;4982316;28;20230;-75
2021/05/31 07:07:52;;;;;;;4.47;3.17;;;;;;;;;;4987077;28;20633;-76
2021/05/31 07:10:18;;;;;;;5.23;2.80;;;;;;;;;;4984870;28;20255;-76
2021/05/31 07:12:45;;;;;;;3.00;2.70;;;;;;;;;;4967999;28;20196;-75
2021/05/31 07:15:12;;;;;;;4.40;3.03;;;;;;;;;;4988604;28;20184;-75
2021/05/31 07:17:39;;;;;;;12.27;3.35;;;;;;;;;;4985051;28;20712;-75
2021/05/31 07:20:10;;;;;;;3.67;2.58;;;;;;;;;;4990369;28;20596;-75
2021/05/31 07:22:38;;;;;;;3.00;2.67;;;;;;;;;;4972922;28;20202;-75
2021/05/31 07:25:06;;;;;;;5.45;2.50;;;;;;;;;;4983373;28;20189;-75
2021/05/31 07:27:32;;;;;;;5.85;2.80;;;;;;;;;;4988606;28;20224;-75
2021/05/31 07:29:58;;;;;;;3.10;2.50;;;;;;;;;;4991328;28;20215;-75
2021/05/31 07:32:23;;;;;;;5.43;3.00;;;;;;;;;;4989325;28;20692;-76
2021/05/31 07:34:49;;;;;;;3.75;2.80;;;;;;;;;;4987225;28;20215;-76
2021/05/31 07:37:14;;;;;;;4.55;3.00;;;;;;;;;;4988980;28;20271;-76
2021/05/31 07:39:39;;;;;;;4.55;3.13;;;;;;;;;;4986491;28;20216;-76
2021/05/31 07:42:06;;;;;;;5.43;3.10;;;;;;;;;;4987191;28;20214;-75
2021/05/31 07:44:31;;;;;;;5.05;3.42;;;;;;;;;;4984704;28;20548;-75
2021/05/31 07:46:57;;;;;;;4.22;3.50;;;;;;;;;;4968266;28;20202;-75
2021/05/31 07:49:22;;;;;;;4.78;4.30;;;;;;;;;;4985411;28;20281;-75
2021/05/31 07:51:50;;;;;;;6.00;4.38;;;;;;;;;;4980718;28;20207;-75
2021/05/31 07:54:15;;;;;;;5.60;5.10;;;;;;;;;;4982966;28;20543;-74
2021/05/31 07:56:41;;;;;;;6.00;5.50;;;;;;;;;;4984153;28;20179;-76
2021/05/31 07:59:06;;;;;;;6.78;6.25;;;;;;;;;;4970978;28;20199;-76
2021/05/31 08:01:34;;;;;;;6.75;6.18;;;;;;;;;;4986766;28;20292;-76
2021/05/31 08:04:00;;;;;;;7.35;6.75;;;;;;;;;;4983592;28;20179;-77
2021/05/31 08:06:26;;;;;;;8.07;7.32;;;;;;;;;;4987580;28;20218;-77
2021/05/31 08:08:54;;;;;;;8.13;7.43;;;;;;;;;;4983308;28;20215;-78
2021/05/31 08:11:19;;;;;;;7.45;6.95;;;;;;;;;;4976601;28;20203;-76
2021/05/31 08:13:44;;;;;;;8.18;7.50;;;;;;;;;;4987896;28;20854;-75
2021/05/31 08:16:11;;;;;;;8.17;7.60;;;;;;;;;;4987119;28;20570;-76
2021/05/31 08:18:36;;;;;;;7.53;6.93;;;;;;;;;;4987207;28;20462;-75
2021/05/31 08:21:03;;;;;;;7.55;6.95;;;;;;;;;;4984249;28;20301;-76
2021/05/31 08:23:28;;;;;;;8.15;7.55;;;;;;;;;;4983154;28;20274;-75
2021/05/31 08:25:53;;;;;;;7.50;6.97;;;;;;;;;;4982470;28;20331;-77
2021/05/31 08:28:19;;;;;;;8.32;7.72;;;;;;;;;;4962763;28;20264;-76
2021/05/31 08:30:44;;;;;;;6.75;6.25;;;;;;;;;;4980174;28;20250;-75
2021/05/31 08:33:12;;;;;;;8.35;7.53;;;;;;;;;;4987176;28;20321;-76
2021/05/31 08:35:43;;;;;;;7.68;7.15;;;;;;;;;;4988130;28;20581;-76
2021/05/31 08:38:09;;;;;;;7.55;6.85;;;;;;;;;;4982480;28;20181;-77
2021/05/31 08:40:37;;;;;;;7.90;7.20;;;;;;;;;;4986569;28;20286;-75
2021/05/31 08:43:03;;;;;;;7.45;7.03;;;;;;;;;;4984374;28;20669;-76
2021/05/31 08:45:30;;;;;;;9.75;6.80;;;;;;;;;;4985779;28;21477;-75
2021/05/31 08:47:57;;;;;;;7.68;7.15;;;;;;;;;;4988087;28;20188;-76
2021/05/31 08:50:24;;;;;;;7.90;7.30;;;;;;;;;;4986855;28;20690;-75
2021/05/31 08:52:51;;;;;;;7.55;6.88;;;;;;;;;;4985555;28;20215;-75
2021/05/31 08:55:19;;;;;;;6.35;5.88;;;;;;;;;;4987816;28;20237;-76
2021/05/31 08:57:45;;;;;;;5.78;5.38;;;;;;;;;;4983263;28;20218;-75
2021/05/31 09:00:16;;;;;;;5.95;5.35;;;;;;;;;;4986368;28;20239;-75
2021/05/31 09:02:42;;;;;;;5.50;5.10;;;;;;;;;;4986287;28;20187;-75
2021/05/31 09:05:09;;;;;;;6.70;6.20;;;;;;;;;;4963408;28;20202;-73
2021/05/31 09:07:35;;;;;;;6.15;5.65;;;;;;;;;;4982971;28;20209;-74
2021/05/31 09:10:01;;;;;;;5.80;5.20;;;;;;;;;;4984371;28;20643;-73
2021/05/31 09:12:34;;;;;;;5.25;4.85;;;;;;;;;;4983265;28;20190;-74
2021/05/31 09:15:02;;;;;;;5.32;4.85;;;;;;;;;;4988547;28;20188;-74
2021/05/31 09:17:30;;;;;;;5.38;4.57;;;;;;;;;;4990085;28;20175;-76
2021/05/31 09:19:58;;;;;;;4.60;4.20;;;;;;;;;;4970326;28;20200;-75
2021/05/31 09:22:24;;;;;;;37.42;6.80;;;;;;;;;;4983519;28;20222;-75
2021/05/31 09:25:02;;;;;;;3.72;3.42;;;;;;;;;;4986299;28;20198;-76
2021/05/31 09:27:29;;;;;;;4.25;3.95;;;;;;;;;;4987331;28;20714;-75
2021/05/31 09:30:06;;;;;;;4.40;4.10;;;;;;;;;;4982849;28;20199;-75
2021/05/31 09:32:33;;;;;;;4.40;3.95;;;;;;;;;;4987659;28;20183;-74
2021/05/31 09:34:59;;;;;;;3.88;3.58;;;;;;;;;;4984845;28;20193;-74
2021/05/31 09:37:24;;;;;;;3.92;3.63;;;;;;;;;;4970956;28;20765;-74
2021/05/31 09:39:57;;;;;;;5.15;3.72;;;;;;;;;;4982866;28;20307;-75
2021/05/31 09:42:25;;;;;;;3.60;3.33;;;;;;;;;;4984209;28;20683;-75
2021/05/31 09:44:59;;;;;;;3.38;3.17;;;;;;;;;;4984594;28;20242;-75
2021/05/31 09:47:30;;;;;;;4.47;3.30;;;;;;;;;;4987996;28;20588;-74
2021/05/31 09:49:55;;;;;;;3.47;2.95;;;;;;;;;;4984955;28;20187;-74
2021/05/31 09:52:20;;;;;;;3.20;2.90;;;;;;;;;;4984208;28;20188;-75
2021/05/31 09:54:53;;;;;;;3.75;3.38;;;;;;;;;;4986545;28;20450;-74
2021/05/31 09:57:34;;;;;;;4.05;2.53;;;;;;;;;;4986312;28;20184;-74
2021/05/31 10:00:20;;;;;;;5.90;2.90;;;;;;;;;;4985475;28;20824;-74
2021/05/31 10:03:24;;;;;;;2.97;2.75;;;;;;;;;;4985284;28;20274;-74
2021/05/31 10:10:51;;;;;;;2.70;2.50;;;;;;;;;;4985295;28;20230;-74
2021/05/31 10:13:19;;;;;;;2.90;2.50;;;;;;;;;;4989244;28;20651;-75
2021/05/31 10:15:44;;;;;;;5.45;2.58;;;;;;;;;;4986952;28;20443;-75
2021/05/31 10:18:13;;;;;;;2.70;2.50;;;;;;;;;;4988324;28;20190;-75
2021/05/31 10:20:39;;;;;;;2.92;2.72;;;;;;;;;;4984767;28;20214;-75
2021/05/31 10:23:08;;;;;;;3.72;2.38;;;;;;;;;;4984767;28;20191;-75
2021/05/31 10:25:38;;;;;;;3.70;2.40;;;;;;;;;;4978268;28;20191;-74
2021/05/31 10:28:07;;;;;;;2.35;2.15;;;;;;;;;;4980787;28;20199;-75
2021/05/31 10:30:40;;;;;;;2.90;2.22;;;;;;;;;;4981152;28;20195;-74
2021/05/31 10:33:12;;;;;;;3.33;2.20;;;;;;;;;;4981213;28;20198;-75
2021/05/31 10:35:38;;;;;;;2.70;2.50;;;;;;;;;;4965478;28;20179;-74
2021/05/31 10:38:10;;;;;;;3.40;2.50;;;;;;;;;;4981552;28;20557;-77
2021/05/31 10:40:37;;;;;;;6.15;2.28;;;;;;;;;;4966042;28;20257;-75
2021/05/31 10:43:09;;;;;;;4.78;2.50;;;;;;;;;;4983966;28;20191;-75
2021/05/31 10:45:35;;;;;;;3.67;2.20;;;;;;;;;;4987191;28;20222;-77
2021/05/31 10:48:08;;;;;;;3.75;2.40;;;;;;;;;;4987468;28;20218;-75
2021/05/31 10:50:47;;;;;;;2.85;2.20;;;;;;;;;;4986088;28;20322;-74
2021/05/31 10:55:58;;;;;;;3.03;2.33;;;;;;;;;;4984164;28;20559;-75
2021/05/31 10:58:27;;;;;;;3.17;2.30;;;;;;;;;;4985521;28;20549;-75
2021/05/31 11:00:56;;;;;;;2.92;2.50;;;;;;;;;;4986338;28;20265;-75
2021/05/31 11:03:22;;;;;;;4.15;2.20;;;;;;;;;;4985833;28;20626;-76
2021/05/31 11:05:47;;;;;;;2.83;2.10;;;;;;;;;;4987834;28;20183;-75
2021/05/31 11:08:23;;;;;;;7.10;3.65;;;;;;;;;;4985747;28;20200;-76
2021/05/31 11:10:56;;;;;;;3.60;2.28;;;;;;;;;;4986520;28;20223;-75
2021/05/31 11:13:22;;;;;;;2.28;1.70;;;;;;;;;;4990865;28;20596;-74
2021/05/31 11:15:59;;;;;;;2.83;1.83;;;;;;;;;;4986120;28;20214;-74
2021/05/31 11:18:32;;;;;;;2.72;2.00;;;;;;;;;;4986805;28;20184;-75
2021/05/31 11:21:00;;;;;;;5.97;2.47;;;;;;;;;;4984373;28;20629;-74
2021/05/31 11:23:25;;;;;;;3.88;2.25;;;;;;;;;;4987648;28;20288;-75
2021/05/31 11:25:50;;;;;;;2.97;1.65;;;;;;;;;;4984608;28;20276;-73
2021/05/31 11:28:17;;;;;;;4.55;2.10;;;;;;;;;;4986679;28;20200;-74
2021/05/31 11:30:46;;;;;;;2.20;1.90;;;;;;;;;;4983731;28;20727;-73
2021/05/31 11:33:17;;;;;;;4.05;2.00;;;;;;;;;;4986309;28;20223;-73
2021/05/31 11:35:47;;;;;;;1.60;1.50;;;;;;;;;;4986113;28;20719;-74
2021/05/31 11:38:15;;;;;;;2.28;1.67;;;;;;;;;;4977016;28;20192;-75
2021/05/31 11:40:41;;;;;;;1.88;1.77;;;;;;;;;;4987892;28;20216;-75
2021/05/31 11:43:11;;;;;;;3.50;1.63;;;;;;;;;;4987753;28;20270;-75
2021/05/31 11:45:38;;;;;;;3.55;1.65;;;;;;;;;;4967744;28;20226;-75
2021/05/31 11:48:13;;;;;;;4.68;1.50;;;;;;;;;;4970405;28;20282;-74
2021/05/31 11:50:42;;;;;;;2.92;1.60;;;;;;;;;;4981178;28;20230;-72
2021/05/31 11:53:12;;;;;;;3.10;1.50;;;;;;;;;;4979233;28;20189;-74
2021/05/31 11:55:39;;;;;;;2.67;1.63;;;;;;;;;;4985007;28;20294;-76
2021/05/31 11:58:05;;;;;;;2.10;1.70;;;;;;;;;;4972691;28;20184;-74
2021/05/31 12:00:35;;;;;;;2.15;1.52;;;;;;;;;;4981144;28;20219;-77
2021/05/31 12:03:00;;;;;;;3.45;1.70;;;;;;;;;;4984238;28;20220;-76
2021/05/31 12:05:37;;;;;;;3.30;1.77;;;;;;;;;;4985658;28;20232;-76
2021/05/31 12:08:09;;;;;;;3.50;1.67;;;;;;;;;;4985084;28;20191;-76
2021/05/31 12:10:36;;;;;;;5.30;1.48;;;;;;;;;;4962709;28;20259;-74
2021/05/31 12:13:06;;;;;;;2.38;1.52;;;;;;;;;;4984059;28;20193;-75
2021/05/31 12:15:34;;;;;;;2.88;1.58;;;;;;;;;;4964605;28;20188;-74
2021/05/31 12:18:13;;;;;;;1.50;1.38;;;;;;;;;;4975126;28;20200;-75
2021/05/31 12:20:38;;;;;;;1.65;1.30;;;;;;;;;;4979484;28;20279;-74
2021/05/31 12:23:22;;;;;;;2.78;1.77;;;;;;;;;;4984550;28;20282;-74
2021/05/31 12:25:49;;;;;;;2.50;1.58;;;;;;;;;;4983450;28;20230;-74
2021/05/31 12:28:15;;;;;;;3.65;1.70;;;;;;;;;;4966882;28;20268;-74
2021/05/31 12:30:50;;;;;;;2.53;1.52;;;;;;;;;;4987801;28;20212;-75
2021/05/31 12:33:15;;;;;;;2.15;1.60;;;;;;;;;;4981893;28;20262;-75
2021/05/31 12:35:45;;;;;;;1.60;1.30;;;;;;;;;;4988064;28;20224;-75
2021/05/31 12:38:11;;;;;;;2.33;1.40;;;;;;;;;;4982770;28;20184;-75
2021/05/31 12:40:41;;;;;;;1.80;1.60;;;;;;;;;;4984251;28;20688;-75
2021/05/31 12:43:10;;;;;;;5.35;2.00;;;;;;;;;;4983324;28;20187;-74
2021/05/31 12:45:49;;;;;;;5.63;2.33;;;;;;;;;;4983491;28;20199;-74
2021/05/31 12:48:20;;;;;;;2.40;1.58;;;;;;;;;;4985098;28;20246;-75
2021/05/31 12:50:51;;;;;;;2.15;1.45;;;;;;;;;;4981722;28;20216;-75
2021/05/31 12:53:16;;;;;;;3.22;2.00;;;;;;;;;;4983413;28;20211;-75
2021/05/31 12:55:43;;;;;;;2.45;1.55;;;;;;;;;;4980298;28;20645;-75
2021/05/31 12:58:23;;;;;;;5.55;2.35;;;;;;;;;;4984636;28;20242;-75
2021/05/31 13:00:48;;;;;;;1.70;1.38;;;;;;;;;;4987465;28;20188;-74
2021/05/31 13:03:17;;;;;;;1.88;1.50;;;;;;;;;;4982698;28;20184;-74
2021/05/31 13:05:48;;;;;;;1.65;1.50;;;;;;;;;;4983644;28;20210;-74
2021/05/31 13:08:14;;;;;;;2.28;1.50;;;;;;;;;;4981547;28;20671;-75
2021/05/31 13:10:47;;;;;;;1.20;1.10;;;;;;;;;;4983864;28;20694;-74
2021/05/31 13:13:19;;;;;;;2.10;1.60;;;;;;;;;;4982239;28;20217;-74
2021/05/31 13:15:52;;;;;;;5.88;2.40;;;;;;;;;;4983566;28;20267;-74
2021/05/31 13:18:21;;;;;;;1.98;1.27;;;;;;;;;;4983940;28;20188;-74
2021/05/31 13:21:03;;;;;;;2.13;1.20;;;;;;;;;;4982373;28;20206;-74
2021/05/31 13:23:33;;;;;;;3.50;1.42;;;;;;;;;;4983033;28;20188;-74
2021/05/31 13:26:01;;;;;;;1.80;1.40;;;;;;;;;;4978674;28;20466;-75
2021/05/31 13:28:41;;;;;;;7.20;2.28;;;;;;;;;;4974961;28;20195;-74
2021/05/31 13:31:11;;;;;;;2.70;1.33;;;;;;;;;;4985726;28;20200;-73
2021/05/31 13:33:45;;;;;;;2.17;1.50;;;;;;;;;;4984000;28;20215;-75
2021/05/31 13:36:17;;;;;;;4.03;1.40;;;;;;;;;;4987239;28;20266;-76
2021/05/31 13:38:43;;;;;;;2.22;1.30;;;;;;;;;;4983067;28;20238;-74
2021/05/31 13:41:08;;;;;;;2.28;1.42;;;;;;;;;;4983673;28;20208;-75
2021/05/31 13:43:37;;;;;;;2.38;1.45;;;;;;;;;;4971487;28;20195;-75
2021/05/31 13:46:04;;;;;;;4.25;1.60;;;;;;;;;;4969261;28;20732;-75
2021/05/31 13:48:30;;;;;;;1.73;1.60;;;;;;;;;;4987021;28;20212;-76
2021/05/31 13:50:59;;;;;;;2.17;1.40;;;;;;;;;;4981909;28;20246;-75
2021/05/31 13:53:24;;;;;;;1.30;1.20;;;;;;;;;;4988062;28;20180;-75
2021/05/31 13:55:51;;;;;;;2.58;1.30;;;;;;;;;;4984144;28;20219;-75
2021/05/31 13:58:17;;;;;;;1.60;1.25;;;;;;;;;;4985706;28;20204;-75
2021/05/31 14:00:45;;;;;;;2.10;1.40;;;;;;;;;;4985426;28;20207;-75
2021/05/31 14:03:10;;;;;;;1.95;1.40;;;;;;;;;;4981973;28;20184;-76
2021/05/31 14:05:38;;;;;;;5.35;1.50;;;;;;;;;;4983973;28;20183;-76
2021/05/31 14:08:05;;;;;;;3.88;1.10;;;;;;;;;;4986847;28;20184;-75
2021/05/31 14:10:31;;;;;;;3.00;1.60;;;;;;;;;;4987997;28;20262;-76
2021/05/31 14:13:02;;;;;;;2.85;1.85;;;;;;;;;;4986798;28;20184;-76
2021/05/31 14:15:28;;;;;;;2.13;1.40;;;;;;;;;;4984047;28;20203;-75
2021/05/31 14:17:54;;;;;;;1.55;1.35;;;;;;;;;;4988932;28;20271;-75
2021/05/31 14:20:24;;;;;;;1.67;1.50;;;;;;;;;;4984119;28;20286;-76
2021/05/31 14:22:53;;;;;;;2.42;1.50;;;;;;;;;;4985968;28;20679;-75
2021/05/31 14:25:20;;;;;;;2.05;1.65;;;;;;;;;;4986409;28;20266;-75
2021/05/31 14:27:45;;;;;;;3.67;1.52;;;;;;;;;;4969943;28;20238;-76
2021/05/31 14:30:16;;;;;;;2.20;1.30;;;;;;;;;;4970149;28;20310;-76
2021/05/31 14:32:41;;;;;;;3.47;1.40;;;;;;;;;;4987397;28;20188;-76
2021/05/31 14:35:08;;;;;;;2.53;1.40;;;;;;;;;;4986550;28;20199;-76
2021/05/31 14:37:33;;;;;;;1.45;1.30;;;;;;;;;;4986594;28;20187;-74
2021/05/31 14:39:59;;;;;;;2.63;1.30;;;;;;;;;;4985444;28;20566;-76
2021/05/31 14:42:24;;;;;;;3.20;1.30;;;;;;;;;;4984019;28;20290;-76
2021/05/31 14:44:50;;;;;;;1.52;1.10;;;;;;;;;;4987070;28;20214;-76
2021/05/31 14:47:15;;;;;;;1.33;1.15;;;;;;;;;;4982863;28;20556;-76
2021/05/31 14:49:45;;;;;;;2.58;1.10;;;;;;;;;;4988092;28;20686;-76
2021/05/31 14:52:10;;;;;;;1.85;1.45;;;;;;;;;;4967189;28;20208;-76
2021/05/31 14:54:35;;;;;;;1.75;1.17;;;;;;;;;;4986394;28;20188;-76
2021/05/31 14:57:01;;;;;;;1.80;1.30;;;;;;;;;;4986680;28;20194;-76
2021/05/31 14:59:27;;;;;;;2.88;1.17;;;;;;;;;;4988058;28;20219;-75
2021/05/31 15:01:55;;;;;;;1.85;1.10;;;;;;;;;;4986596;28;20224;-75
2021/05/31 15:04:20;;;;;;;2.28;1.20;;;;;;;;;;4970346;28;20667;-76
2021/05/31 15:06:46;;;;;;;1.38;1.10;;;;;;;;;;4986851;28;20187;-76
2021/05/31 15:09:12;;;;;;;1.80;1.27;;;;;;;;;;4985992;28;20208;-76
2021/05/31 15:11:37;;;;;;;3.10;1.20;;;;;;;;;;4983073;28;20577;-76